createdAt,value
2016-09-08T00:00:27.687Z,89.72
2016-09-08T00:01:27.666Z,89.91
2016-09-08T00:02:27.659Z,89.81
2016-09-08T00:03:27.653Z,89.86
2016-09-08T00:04:27.626Z,90.1
2016-09-08T00:05:27.613Z,90.3
2016-09-08T00:06:27.606Z,90.3
2016-09-08T00:07:27.604Z,90.68
2016-09-08T00:08:27.585Z,90.48
2016-09-08T00:09:27.562Z,90.78
2016-09-08T00:10:27.553Z,90.58
2016-09-08T00:11:27.223Z,90.2
2016-09-08T00:12:27.530Z,90.58
2016-09-08T00:13:27.522Z,91.06
2016-09-08T00:14:27.522Z,90.39
2016-09-08T00:15:27.501Z,90.58
2016-09-08T00:16:27.162Z,90.58
2016-09-08T00:17:27.155Z,90.58
2016-09-08T00:18:27.466Z,90.78
2016-09-08T00:19:27.123Z,91.06
2016-09-08T00:20:27.442Z,91.06
2016-09-08T00:21:27.423Z,91.02
2016-09-08T00:22:27.414Z,91.16
2016-09-08T00:23:27.405Z,91.74
2016-09-08T00:24:27.384Z,91.31
2016-09-08T00:25:27.373Z,91.12
2016-09-08T00:26:27.362Z,91.55
2016-09-08T00:27:27.043Z,91.26
2016-09-08T00:28:27.342Z,91.02
2016-09-08T00:29:27.010Z,90.88
2016-09-08T00:30:27.324Z,91.06
2016-09-08T00:31:27.313Z,90.68
2016-09-08T00:32:26.969Z,90.68
2016-09-08T00:33:27.302Z,90.48
2016-09-08T00:34:27.278Z,90.97
2016-09-08T00:35:27.274Z,90.39
2016-09-08T00:36:26.925Z,90.88
2016-09-08T00:37:27.252Z,91.06
2016-09-08T00:38:27.221Z,91.06
2016-09-08T00:39:27.211Z,91.16
2016-09-08T00:40:27.199Z,90.97
2016-09-08T00:41:27.183Z,91.06
2016-09-08T00:42:27.162Z,90.88
2016-09-08T00:43:27.150Z,90.97
2016-09-08T00:44:27.146Z,91.31
2016-09-08T00:45:27.132Z,91.02
2016-09-08T00:46:27.128Z,90.92
2016-09-08T00:47:27.119Z,91.02
2016-09-08T00:48:26.778Z,91.21
2016-09-08T00:49:27.082Z,91.12
2016-09-08T00:50:27.080Z,91.31
2016-09-08T00:51:27.060Z,91.21
2016-09-08T00:52:26.733Z,91.41
2016-09-08T00:53:27.035Z,91.69
2016-09-08T00:54:27.033Z,91.21
2016-09-08T00:55:27.009Z,91.89
2016-09-08T00:56:27.012Z,91.99
2016-09-08T00:57:27.000Z,91.6
2016-09-08T00:58:26.990Z,92.08
2016-09-08T00:59:26.642Z,92.27
2016-09-08T01:00:27.021Z,92.37
2016-09-08T01:01:26.623Z,92.47
2016-09-08T01:02:26.930Z,92.18
2016-09-08T01:03:26.914Z,92.47
2016-09-08T01:04:26.940Z,92.66
2016-09-08T01:05:26.893Z,92.18
2016-09-08T01:06:26.562Z,92.18
2016-09-08T01:07:26.865Z,93.14
2016-09-08T01:08:26.851Z,93.14
2016-09-08T01:09:26.595Z,93.04
2016-09-08T01:10:26.841Z,92.85
2016-09-08T01:11:26.812Z,92.85
2016-09-08T01:12:26.801Z,93.04
2016-09-08T01:13:26.801Z,92.66
2016-09-08T01:14:26.831Z,93.14
2016-09-08T01:15:26.783Z,93.52
2016-09-08T01:16:26.809Z,93.33
2016-09-08T01:17:26.743Z,93.14
2016-09-08T01:18:26.734Z,92.85
2016-09-08T01:19:26.712Z,92.66
2016-09-08T01:20:26.702Z,92.56
2016-09-08T01:21:26.701Z,92.76
2016-09-08T01:22:26.360Z,92.18
2016-09-08T01:23:26.712Z,92.76
2016-09-08T01:24:26.652Z,92.66
2016-09-08T01:25:26.640Z,92.66
2016-09-08T01:26:26.642Z,92.76
2016-09-08T01:27:26.623Z,92.85
2016-09-08T01:28:26.609Z,93.24
2016-09-08T01:29:26.594Z,93.14
2016-09-08T01:30:26.581Z,92.94
2016-09-08T01:31:26.582Z,93.33
2016-09-08T01:32:26.243Z,93.43
2016-09-08T01:33:26.537Z,93.33
2016-09-08T01:34:26.218Z,94.01
2016-09-08T01:35:26.210Z,94.1
2016-09-08T01:36:26.516Z,93.77
2016-09-08T01:37:26.500Z,93.77
2016-09-08T01:38:26.488Z,93.87
2016-09-08T01:39:26.481Z,93.67
2016-09-08T01:40:26.459Z,94.34
2016-09-08T01:41:26.441Z,94.25
2016-09-08T01:42:26.439Z,94.82
2016-09-08T01:43:26.126Z,94.82
2016-09-08T01:44:26.410Z,94.54
2016-09-08T01:45:26.397Z,94.64
2016-09-08T01:46:26.381Z,94.82
2016-09-08T01:47:26.359Z,94.92
2016-09-08T01:48:26.039Z,95.02
2016-09-08T01:49:26.025Z,94.44
2016-09-08T01:50:26.341Z,95.07
2016-09-08T01:51:26.327Z,94.92
2016-09-08T01:52:26.312Z,95.36
2016-09-08T01:53:25.969Z,95.17
2016-09-08T01:54:25.970Z,95.45
2016-09-08T01:55:26.270Z,95.74
2016-09-08T01:56:26.251Z,95.55
2016-09-08T01:57:26.242Z,95.26
2016-09-08T01:58:26.230Z,94.78
2016-09-08T01:59:26.221Z,95.17
2016-09-08T02:00:26.198Z,94.87
2016-09-08T02:01:26.192Z,94.87
2016-09-08T02:02:26.177Z,94.92
2016-09-08T02:03:25.850Z,94.59
2016-09-08T02:04:26.150Z,94.97
2016-09-08T02:05:25.821Z,94.92
2016-09-08T02:06:26.120Z,94.78
2016-09-08T02:07:26.121Z,94.82
2016-09-08T02:08:26.107Z,94.92
2016-09-08T02:09:26.090Z,94.49
2016-09-08T02:10:25.761Z,94.44
2016-09-08T02:11:26.082Z,95.17
2016-09-08T02:12:25.730Z,95.31
2016-09-08T02:13:26.044Z,95.36
2016-09-08T02:14:25.711Z,95.36
2016-09-08T02:15:26.032Z,94.68
2016-09-08T02:16:26.005Z,94.59
2016-09-08T02:17:25.997Z,95.26
2016-09-08T02:18:25.996Z,95.26
2016-09-08T02:19:25.981Z,95.36
2016-09-08T02:20:25.968Z,95.26
2016-09-08T02:21:25.621Z,95.36
2016-09-08T02:22:25.930Z,94.97
2016-09-08T02:23:25.920Z,94.97
2016-09-08T02:24:25.908Z,95.17
2016-09-08T02:25:25.880Z,95.55
2016-09-08T02:26:25.557Z,95.07
2016-09-08T02:27:25.864Z,95.55
2016-09-08T02:28:25.855Z,96.03
2016-09-08T02:29:25.522Z,96.12
2016-09-08T02:30:25.499Z,95.84
2016-09-08T02:31:25.811Z,96.03
2016-09-08T02:32:25.801Z,96.22
2016-09-08T02:33:25.801Z,96.22
2016-09-08T02:34:25.449Z,95.84
2016-09-08T02:35:25.758Z,96.12
2016-09-08T02:36:25.426Z,95.94
2016-09-08T02:37:25.730Z,96.03
2016-09-08T02:38:25.721Z,96.32
2016-09-08T02:39:25.711Z,95.65
2016-09-08T02:40:25.698Z,96.03
2016-09-08T02:41:25.697Z,96.03
2016-09-08T02:42:25.669Z,95.36
2016-09-08T02:43:25.657Z,96.03
2016-09-08T02:44:25.659Z,95.84
2016-09-08T02:45:25.639Z,96.22
2016-09-08T02:46:25.607Z,96.32
2016-09-08T02:47:25.601Z,96.42
2016-09-08T02:48:25.591Z,95.84
2016-09-08T02:49:25.580Z,95.55
2016-09-08T02:50:25.567Z,95.84
2016-09-08T02:51:25.566Z,96.03
2016-09-08T02:52:25.541Z,96.32
2016-09-08T02:53:25.519Z,96.51
2016-09-08T02:54:25.517Z,96.22
2016-09-08T02:55:25.511Z,96.32
2016-09-08T02:56:25.492Z,96.7
2016-09-08T02:57:25.477Z,96.51
2016-09-08T02:58:25.471Z,96.12
2016-09-08T02:59:25.455Z,96.51
2016-09-08T03:00:25.430Z,96.32
2016-09-08T03:01:25.429Z,96.61
2016-09-08T03:02:25.415Z,97.09
2016-09-08T03:03:25.408Z,96.94
2016-09-08T03:04:25.391Z,97.14
2016-09-08T03:05:25.378Z,97.14
2016-09-08T03:06:25.047Z,97.33
2016-09-08T03:07:25.020Z,97.04
2016-09-08T03:08:25.008Z,97.09
2016-09-08T03:09:25.319Z,97.24
2016-09-08T03:10:25.307Z,96.37
2016-09-08T03:11:25.291Z,96.42
2016-09-08T03:12:24.970Z,97.33
2016-09-08T03:13:25.300Z,97.14
2016-09-08T03:14:25.250Z,96.85
2016-09-08T03:15:25.239Z,96.94
2016-09-08T03:16:25.226Z,96.85
2016-09-08T03:17:24.888Z,97.33
2016-09-08T03:18:25.200Z,97.14
2016-09-08T03:19:25.194Z,97.33
2016-09-08T03:20:24.860Z,97.14
2016-09-08T03:21:25.169Z,97.14
2016-09-08T03:22:25.230Z,97.71
2016-09-08T03:23:25.137Z,97.62
2016-09-08T03:24:25.125Z,97.52
2016-09-08T03:25:25.107Z,97.42
2016-09-08T03:26:25.101Z,97.71
2016-09-08T03:27:24.763Z,98.29
2016-09-08T03:28:25.108Z,98.19
2016-09-08T03:29:25.060Z,97.91
2016-09-08T03:30:25.110Z,97.81
2016-09-08T03:31:25.038Z,98
2016-09-08T03:32:25.019Z,98.1
2016-09-08T03:33:24.678Z,98.1
2016-09-08T03:34:24.996Z,97.71
2016-09-08T03:35:24.980Z,97.91
2016-09-08T03:36:25.028Z,98.19
2016-09-08T03:37:24.956Z,98.1
2016-09-08T03:38:24.961Z,98.1
2016-09-08T03:39:24.920Z,97.81
2016-09-08T03:40:24.920Z,98.39
2016-09-08T03:41:24.901Z,98.1
2016-09-08T03:42:24.899Z,98.68
2016-09-08T03:43:24.867Z,98.29
2016-09-08T03:44:24.867Z,98.58
2016-09-08T03:45:24.523Z,98.1
2016-09-08T03:46:24.848Z,98.1
2016-09-08T03:47:24.819Z,98.19
2016-09-08T03:48:24.888Z,98.58
2016-09-08T03:49:24.790Z,98.77
2016-09-08T03:50:24.770Z,98.58
2016-09-08T03:51:24.768Z,98.29
2016-09-08T03:52:24.749Z,98.68
2016-09-08T03:53:24.740Z,98.49
2016-09-08T03:54:24.730Z,98.53
2016-09-08T03:55:24.409Z,98.58
2016-09-08T03:56:24.749Z,98.19
2016-09-08T03:57:24.365Z,98.44
2016-09-08T03:58:24.683Z,99.44
2016-09-08T03:59:24.702Z,98.87
2016-09-08T04:00:24.696Z,98.96
2016-09-08T04:01:24.678Z,99.11
2016-09-08T04:02:24.680Z,98.72
2016-09-08T04:03:24.290Z,98.96
2016-09-08T04:04:24.591Z,99.06
2016-09-08T04:05:24.586Z,99.26
2016-09-08T04:06:24.590Z,98.91
2016-09-08T04:07:24.602Z,99.21
2016-09-08T04:08:24.547Z,99.01
2016-09-08T04:09:24.539Z,99.59
2016-09-08T04:10:24.539Z,99.21
2016-09-08T04:11:24.558Z,99.4
2016-09-08T04:12:24.476Z,99.99
2016-09-08T04:13:24.486Z,99.99
2016-09-08T04:14:24.459Z,99.99
2016-09-08T04:15:24.438Z,99.98
2016-09-08T04:16:24.430Z,99.99
2016-09-08T04:17:24.434Z,99.99
2016-09-08T04:18:24.397Z,99.88
2016-09-08T04:19:24.391Z,99.99
2016-09-08T04:20:24.392Z,99.99
2016-09-08T04:21:24.039Z,99.59
2016-09-08T04:22:24.359Z,99.68
2016-09-08T04:23:24.339Z,99.49
2016-09-08T04:24:24.009Z,99.99
2016-09-08T04:25:24.316Z,99.88
2016-09-08T04:26:24.308Z,99.99
2016-09-08T04:27:24.294Z,99.99
2016-09-08T04:28:24.271Z,99.98
2016-09-08T04:29:24.287Z,99.99
2016-09-08T04:30:24.260Z,99.99
2016-09-08T04:31:24.261Z,99.99
2016-09-08T04:32:24.210Z,99.99
2016-09-08T04:33:24.229Z,99.88
2016-09-08T04:34:23.871Z,99.99
2016-09-08T04:35:24.189Z,99.99
2016-09-08T04:36:24.167Z,99.99
2016-09-08T04:37:24.150Z,99.99
2016-09-08T04:38:23.821Z,99.99
2016-09-08T04:39:24.123Z,99.99
2016-09-08T04:40:24.107Z,99.99
2016-09-08T04:41:24.109Z,99.99
2016-09-08T04:42:24.089Z,99.99
2016-09-08T04:43:24.076Z,99.99
2016-09-08T04:44:24.050Z,99.99
2016-09-08T04:45:24.041Z,99.99
2016-09-08T04:46:24.023Z,99.99
2016-09-08T04:47:24.010Z,99.99
2016-09-08T04:48:24.009Z,99.99
2016-09-08T04:49:23.674Z,99.99
2016-09-08T04:50:23.971Z,99.99
2016-09-08T04:51:23.961Z,99.99
2016-09-08T04:52:23.949Z,99.99
2016-09-08T04:53:23.930Z,99.99
2016-09-08T04:54:23.919Z,99.99
2016-09-08T04:55:23.921Z,99.99
2016-09-08T04:56:23.891Z,99.99
2016-09-08T04:57:23.892Z,99.99
2016-09-08T04:58:23.542Z,99.99
2016-09-08T04:59:23.877Z,99.99
2016-09-08T05:00:23.843Z,99.99
2016-09-08T05:01:23.819Z,99.99
2016-09-08T05:02:23.491Z,99.99
2016-09-08T05:03:23.800Z,99.99
2016-09-08T05:04:23.461Z,99.99
2016-09-08T05:05:23.774Z,99.99
2016-09-08T05:06:23.749Z,99.99
2016-09-08T05:07:23.737Z,99.99
2016-09-08T05:08:23.759Z,99.99
2016-09-08T05:09:23.719Z,99.99
2016-09-08T05:10:23.706Z,99.99
2016-09-08T05:11:23.378Z,99.99
2016-09-08T05:12:23.354Z,99.99
2016-09-08T05:13:23.666Z,99.99
2016-09-08T05:14:23.641Z,99.99
2016-09-08T05:15:23.640Z,99.99
2016-09-08T05:16:23.621Z,99.99
2016-09-08T05:17:23.620Z,99.99
2016-09-08T05:18:23.278Z,99.99
2016-09-08T05:19:23.594Z,99.99
2016-09-08T05:20:23.242Z,99.99
2016-09-08T05:21:23.549Z,99.99
2016-09-08T05:22:23.226Z,99.99
2016-09-08T05:23:23.203Z,99.99
2016-09-08T05:24:23.507Z,99.99
2016-09-08T05:25:23.489Z,99.99
2016-09-08T05:26:23.490Z,99.99
2016-09-08T05:27:23.479Z,99.99
2016-09-08T05:28:23.450Z,99.99
2016-09-08T05:29:23.121Z,99.99
2016-09-08T05:30:23.118Z,99.99
2016-09-08T05:31:23.409Z,99.99
2016-09-08T05:32:23.403Z,99.99
2016-09-08T05:33:23.380Z,99.99
2016-09-08T05:34:23.372Z,99.99
2016-09-08T05:35:23.366Z,99.99
2016-09-08T05:36:23.343Z,99.99
2016-09-08T05:37:23.329Z,99.99
2016-09-08T05:38:23.321Z,99.99
2016-09-08T05:39:23.311Z,99.99
2016-09-08T05:40:23.290Z,99.99
2016-09-08T05:41:23.281Z,99.99
2016-09-08T05:42:23.265Z,99.99
2016-09-08T05:43:23.246Z,99.99
2016-09-08T05:44:23.235Z,99.99
2016-09-08T05:45:23.226Z,99.99
2016-09-08T05:46:23.206Z,99.99
2016-09-08T05:47:23.192Z,99.99
2016-09-08T05:48:23.183Z,99.99
2016-09-08T05:49:23.162Z,99.99
2016-09-08T05:50:23.161Z,99.99
2016-09-08T05:51:23.149Z,99.99
2016-09-08T05:52:23.138Z,99.99
2016-09-08T05:53:22.793Z,99.99
2016-09-08T05:54:22.776Z,99.99
2016-09-08T05:55:22.766Z,99.99
2016-09-08T05:56:23.077Z,99.99
2016-09-08T05:57:23.055Z,99.99
2016-09-08T05:58:23.050Z,99.99
2016-09-08T05:59:22.717Z,99.99
2016-09-08T06:00:23.038Z,99.99
2016-09-08T06:01:23.005Z,99.99
2016-09-08T06:02:22.997Z,99.99
2016-09-08T06:03:22.977Z,99.99
2016-09-08T06:04:22.978Z,99.99
2016-09-08T06:05:22.631Z,99.99
2016-09-08T06:06:22.934Z,99.99
2016-09-08T06:07:22.919Z,99.99
2016-09-08T06:08:22.921Z,99.99
2016-09-08T06:09:22.894Z,99.99
2016-09-08T06:10:22.875Z,99.99
2016-09-08T06:11:22.870Z,99.99
2016-09-08T06:12:22.534Z,99.99
2016-09-08T06:13:22.849Z,99.99
2016-09-08T06:14:22.818Z,99.99
2016-09-08T06:15:22.810Z,99.99
2016-09-08T06:16:22.799Z,99.99
2016-09-08T06:17:22.795Z,99.99
2016-09-08T06:18:22.766Z,99.99
2016-09-08T06:19:22.763Z,99.99
2016-09-08T06:20:22.755Z,99.99
2016-09-08T06:21:22.739Z,99.99
2016-09-08T06:22:22.409Z,99.99
2016-09-08T06:23:22.391Z,99.99
2016-09-08T06:24:22.377Z,99.99
2016-09-08T06:25:22.364Z,99.99
2016-09-08T06:26:22.346Z,99.99
2016-09-08T06:27:22.339Z,99.99
2016-09-08T06:28:22.323Z,99.99
2016-09-08T06:29:22.629Z,99.99
2016-09-08T06:30:22.606Z,99.99
2016-09-08T06:31:22.274Z,99.99
2016-09-08T06:32:22.264Z,99.99
2016-09-08T06:33:22.574Z,99.99
2016-09-08T06:34:22.562Z,99.99
2016-09-08T06:35:22.542Z,99.99
2016-09-08T06:36:22.536Z,99.99
2016-09-08T06:37:22.525Z,99.99
2016-09-08T06:38:22.507Z,99.99
2016-09-08T06:39:22.485Z,99.99
2016-09-08T06:40:22.491Z,99.99
2016-09-08T06:41:22.468Z,99.99
2016-09-08T06:42:22.445Z,99.99
2016-09-08T06:43:22.443Z,99.99
2016-09-08T06:44:22.426Z,99.99
2016-09-08T06:45:22.488Z,99.99
2016-09-08T06:46:22.480Z,99.99
2016-09-08T06:47:22.433Z,99.99
2016-09-08T06:48:22.059Z,99.99
2016-09-08T06:49:22.060Z,99.99
2016-09-08T06:50:22.352Z,99.99
2016-09-08T06:51:22.337Z,99.99
2016-09-08T06:52:22.336Z,99.99
2016-09-08T06:53:22.315Z,99.99
2016-09-08T06:54:22.309Z,99.99
2016-09-08T06:55:22.291Z,99.99
2016-09-08T06:56:22.279Z,99.99
2016-09-08T06:57:22.262Z,99.99
2016-09-08T06:58:22.248Z,99.99
2016-09-08T06:59:22.229Z,99.99
2016-09-08T07:00:21.899Z,99.74
2016-09-08T07:01:22.257Z,99.4
2016-09-08T07:02:22.188Z,98.72
2016-09-08T07:03:22.184Z,98.44
2016-09-08T07:04:22.167Z,98.24
2016-09-08T07:05:21.838Z,97.04
2016-09-08T07:06:21.838Z,95.06
2016-09-08T07:07:21.821Z,94.15
2016-09-08T07:08:22.127Z,93.04
2016-09-08T07:09:22.121Z,90.81
2016-09-08T07:10:21.803Z,88.34
2016-09-08T07:11:22.143Z,88.67
2016-09-08T07:12:21.765Z,88.15
2016-09-08T07:13:22.075Z,84.94
2016-09-08T07:14:21.743Z,82.07
2016-09-08T07:15:21.726Z,78.46
2016-09-08T07:16:22.034Z,76.64
2016-09-08T07:17:22.034Z,75.02
2016-09-08T07:18:22.023Z,75.05
2016-09-08T07:19:22.016Z,76.05
2016-09-08T07:20:22.018Z,75.74
2016-09-08T07:21:21.997Z,75.47
2016-09-08T07:22:21.675Z,75.89
2016-09-08T07:23:21.661Z,75.89
2016-09-08T07:24:21.653Z,75.85
2016-09-08T07:25:21.955Z,75.7
2016-09-08T07:26:21.643Z,75.85
2016-09-08T07:27:21.630Z,75.51
2016-09-08T07:28:21.936Z,75.45
2016-09-08T07:29:21.937Z,75.12
2016-09-08T07:30:21.918Z,76.42
2016-09-08T07:31:21.596Z,77.99
2016-09-08T07:32:21.921Z,78.77
2016-09-08T07:33:21.904Z,78.54
2016-09-08T07:34:21.885Z,79.99
2016-09-08T07:35:21.889Z,80.25
2016-09-08T07:36:21.561Z,81.95
2016-09-08T07:37:21.874Z,83.42
2016-09-08T07:38:21.864Z,84.45
2016-09-08T07:39:21.856Z,85.57
2016-09-08T07:40:21.856Z,86.54
2016-09-08T07:41:21.857Z,86.59
2016-09-08T07:42:21.847Z,85.66
2016-09-08T07:43:21.827Z,84.55
2016-09-08T07:44:21.837Z,83.52
2016-09-08T07:45:21.514Z,82.05
2016-09-08T07:46:21.824Z,81.7
2016-09-08T07:47:21.828Z,81.02
2016-09-08T07:48:21.805Z,80.98
2016-09-08T07:49:21.826Z,78.83
2016-09-08T07:50:21.811Z,78.52
2016-09-08T07:51:21.486Z,76.67
2016-09-08T07:52:21.794Z,76.22
2016-09-08T07:53:21.819Z,74.45
2016-09-08T07:54:21.794Z,72.86
2016-09-08T07:55:21.792Z,72.55
2016-09-08T07:56:21.806Z,71.05
2016-09-08T07:57:21.786Z,69.82
2016-09-08T07:58:21.470Z,72.38
2016-09-08T07:59:21.468Z,73.22
2016-09-08T08:00:21.798Z,73.18
2016-09-08T08:01:21.785Z,72.47
2016-09-08T08:02:21.480Z,70.33
2016-09-08T08:03:21.794Z,69.53
2016-09-08T08:04:21.793Z,68.23
2016-09-08T08:05:21.793Z,66.17
2016-09-08T08:06:21.792Z,63.99
2016-09-08T08:07:21.786Z,64.38
2016-09-08T08:08:21.791Z,64.51
2016-09-08T08:09:21.803Z,63.24
2016-09-08T08:10:21.795Z,62.78
2016-09-08T08:11:21.803Z,62.41
2016-09-08T08:12:21.809Z,60.61
2016-09-08T08:13:21.477Z,61.15
2016-09-08T08:14:21.487Z,60.42
2016-09-08T08:15:21.806Z,60.47
2016-09-08T08:16:21.485Z,60.78
2016-09-08T08:17:21.816Z,60.61
2016-09-08T08:18:21.812Z,61.93
2016-09-08T08:19:21.816Z,61.41
2016-09-08T08:20:21.835Z,61.37
2016-09-08T08:21:21.496Z,64.25
2016-09-08T08:22:21.510Z,67.15
2016-09-08T08:23:21.820Z,66.11
2016-09-08T08:24:21.822Z,65.91
2016-09-08T08:25:21.837Z,65.92
2016-09-08T08:26:21.835Z,64.9
2016-09-08T08:27:21.835Z,64.51
2016-09-08T08:28:21.831Z,64.06
2016-09-08T08:29:21.847Z,66.27
2016-09-08T08:30:21.842Z,67.09
2016-09-08T08:31:21.837Z,67.15
2016-09-08T08:32:21.522Z,66.41
2016-09-08T08:33:21.521Z,67.09
2016-09-08T08:34:21.856Z,67.97
2016-09-08T08:35:21.857Z,68
2016-09-08T08:36:21.862Z,68.23
2016-09-08T08:37:21.536Z,69.17
2016-09-08T08:38:21.849Z,70.27
2016-09-08T08:39:21.542Z,69.07
2016-09-08T08:40:21.857Z,68.32
2016-09-08T08:41:21.870Z,67.18
2016-09-08T08:42:21.860Z,66.93
2016-09-08T08:43:21.540Z,67.87
2016-09-08T08:44:21.541Z,68
2016-09-08T08:45:21.867Z,68.03
2016-09-08T08:46:21.856Z,68.39
2016-09-08T08:47:21.887Z,67.02
2016-09-08T08:48:21.866Z,63.93
2016-09-08T08:49:21.880Z,64.28
2016-09-08T08:50:21.882Z,65.17
2016-09-08T08:51:21.880Z,67.8
2016-09-08T08:52:21.881Z,68.16
2016-09-08T08:53:21.881Z,69.2
2016-09-08T08:54:21.886Z,70.2
2016-09-08T08:55:21.878Z,70.2
2016-09-08T08:56:21.882Z,67.96
2016-09-08T08:57:21.562Z,68.23
2016-09-08T08:58:21.888Z,68.32
2016-09-08T08:59:21.896Z,67.74
2016-09-08T09:00:21.889Z,66.96
2016-09-08T09:01:21.886Z,65.04
2016-09-08T09:02:21.568Z,63.93
2016-09-08T09:03:21.896Z,64.09
2016-09-08T09:04:21.898Z,62.56
2016-09-08T09:05:21.889Z,61.47
2016-09-08T09:06:21.897Z,63.11
2016-09-08T09:07:21.894Z,64.39
2016-09-08T09:08:21.895Z,66.14
2016-09-08T09:09:21.898Z,65.72
2016-09-08T09:10:21.904Z,63.77
2016-09-08T09:11:21.579Z,62
2016-09-08T09:12:21.907Z,61.11
2016-09-08T09:13:21.576Z,60.72
2016-09-08T09:14:21.912Z,61.83
2016-09-08T09:15:21.917Z,62.98
2016-09-08T09:16:21.920Z,63.54
2016-09-08T09:17:21.916Z,64.97
2016-09-08T09:18:21.914Z,66.93
2016-09-08T09:19:21.915Z,64.51
2016-09-08T09:20:21.921Z,62.6
2016-09-08T09:21:21.936Z,62.36
2016-09-08T09:22:21.939Z,64.16
2016-09-08T09:23:21.922Z,64.45
2016-09-08T09:24:21.936Z,64.29
2016-09-08T09:25:21.927Z,64.36
2016-09-08T09:26:21.614Z,64.12
2016-09-08T09:27:21.947Z,63.87
2016-09-08T09:28:21.938Z,63.38
2016-09-08T09:29:21.933Z,64.03
2016-09-08T09:30:21.935Z,63.54
2016-09-08T09:31:21.925Z,62.43
2016-09-08T09:32:21.625Z,61.9
2016-09-08T09:33:21.938Z,61.15
2016-09-08T09:34:21.938Z,60.42
2016-09-08T09:35:21.936Z,59.5
2016-09-08T09:36:21.628Z,57.73
2016-09-08T09:37:21.938Z,56.77
2016-09-08T09:38:21.946Z,61.23
2016-09-08T09:39:21.621Z,62.23
2016-09-08T09:40:21.635Z,62.66
2016-09-08T09:41:21.957Z,63.02
2016-09-08T09:42:21.940Z,62.36
2016-09-08T09:43:21.959Z,60.66
2016-09-08T09:44:21.955Z,59.55
2016-09-08T09:45:21.964Z,59.24
2016-09-08T09:46:21.959Z,58.72
2016-09-08T09:47:21.962Z,59.5
2016-09-08T09:48:21.654Z,59.55
2016-09-08T09:49:21.958Z,60.46
2016-09-08T09:50:21.959Z,62.23
2016-09-08T09:51:21.961Z,63.8
2016-09-08T09:52:21.969Z,64.26
2016-09-08T09:53:21.961Z,63.09
2016-09-08T09:54:21.969Z,63.9
2016-09-08T09:55:21.963Z,62.46
2016-09-08T09:56:21.655Z,59.84
2016-09-08T09:57:21.979Z,57.87
2016-09-08T09:58:21.985Z,60
2016-09-08T09:59:21.976Z,62.26
2016-09-08T10:00:21.967Z,61.71
2016-09-08T10:01:21.959Z,60.4
2016-09-08T10:02:21.975Z,60.03
2016-09-08T10:03:21.960Z,59.61
2016-09-08T10:04:21.958Z,62.85
2016-09-08T10:05:21.971Z,63.44
2016-09-08T10:06:21.979Z,63.34
2016-09-08T10:07:21.644Z,62.56
2016-09-08T10:08:21.976Z,59.61
2016-09-08T10:09:21.644Z,58.5
2016-09-08T10:10:21.641Z,57.38
2016-09-08T10:11:21.957Z,58.12
2016-09-08T10:12:21.959Z,56.32
2016-09-08T10:13:21.966Z,56.28
2016-09-08T10:14:21.956Z,54.83
2016-09-08T10:15:21.969Z,54.57
2016-09-08T10:16:21.958Z,55.65
2016-09-08T10:17:21.634Z,56.77
2016-09-08T10:18:21.958Z,56.62
2016-09-08T10:19:21.634Z,56.48
2016-09-08T10:20:21.959Z,56.68
2016-09-08T10:21:21.954Z,56.14
2016-09-08T10:22:21.638Z,54.62
2016-09-08T10:23:21.967Z,55.8
2016-09-08T10:24:21.627Z,56.77
2016-09-08T10:25:21.949Z,59.66
2016-09-08T10:26:21.620Z,62.03
2016-09-08T10:27:21.939Z,61.32
2016-09-08T10:28:21.939Z,59.64
2016-09-08T10:29:21.623Z,58.45
2016-09-08T10:30:21.613Z,57.9
2016-09-08T10:31:21.934Z,56.87
2016-09-08T10:32:21.938Z,56.77
2016-09-08T10:33:21.928Z,55.65
2016-09-08T10:34:21.962Z,54.69
2016-09-08T10:35:21.926Z,56.77
2016-09-08T10:36:21.918Z,56.65
2016-09-08T10:37:21.929Z,56.45
2016-09-08T10:38:21.930Z,56.48
2016-09-08T10:39:21.910Z,56.58
2016-09-08T10:40:21.909Z,54.49
2016-09-08T10:41:21.918Z,54.39
2016-09-08T10:42:21.919Z,54.39
2016-09-08T10:43:21.907Z,54.39
2016-09-08T10:44:21.907Z,54.66
2016-09-08T10:45:21.899Z,54.54
2016-09-08T10:46:21.578Z,53.7
2016-09-08T10:47:21.909Z,54.83
2016-09-08T10:48:21.889Z,54.25
2016-09-08T10:49:21.886Z,55.57
2016-09-08T10:50:21.891Z,55.15
2016-09-08T10:51:21.899Z,55.49
2016-09-08T10:52:21.896Z,56.55
2016-09-08T10:53:21.881Z,55.51
2016-09-08T10:54:21.882Z,54.32
2016-09-08T10:55:21.865Z,53.14
2016-09-08T10:56:21.559Z,52.89
2016-09-08T10:57:21.876Z,53.73
2016-09-08T10:58:21.869Z,53.04
2016-09-08T10:59:21.541Z,52.89
2016-09-08T11:00:21.855Z,52.99
2016-09-08T11:01:21.861Z,53.73
2016-09-08T11:02:21.856Z,53.04
2016-09-08T11:03:21.849Z,52.87
2016-09-08T11:04:21.537Z,52.99
2016-09-08T11:05:21.531Z,54.12
2016-09-08T11:06:21.839Z,54.02
2016-09-08T11:07:21.857Z,53.7
2016-09-08T11:08:21.838Z,52.75
2016-09-08T11:09:21.827Z,53.06
2016-09-08T11:10:21.838Z,52.94
2016-09-08T11:11:21.825Z,52.23
2016-09-08T11:12:21.511Z,51.18
2016-09-08T11:13:21.827Z,52.14
2016-09-08T11:14:21.835Z,51.57
2016-09-08T11:15:21.505Z,50.71
2016-09-08T11:16:21.813Z,49.62
2016-09-08T11:17:21.831Z,49.85
2016-09-08T11:18:21.841Z,50.68
2016-09-08T11:19:21.813Z,50.46
2016-09-08T11:20:21.806Z,51.28
2016-09-08T11:21:21.803Z,52.35
2016-09-08T11:22:21.810Z,52.18
2016-09-08T11:23:21.813Z,51.86
2016-09-08T11:24:21.472Z,51.3
2016-09-08T11:25:21.800Z,51.52
2016-09-08T11:26:21.797Z,51.93
2016-09-08T11:27:21.496Z,52.58
2016-09-08T11:28:21.787Z,52.84
2016-09-08T11:29:21.779Z,53.87
2016-09-08T11:30:21.459Z,54.44
2016-09-08T11:31:21.777Z,55.16
2016-09-08T11:32:21.777Z,54.21
2016-09-08T11:33:21.848Z,54.14
2016-09-08T11:34:21.444Z,52.99
2016-09-08T11:35:21.769Z,52.94
2016-09-08T11:36:21.769Z,53.21
2016-09-08T11:37:21.769Z,51.57
2016-09-08T11:38:21.429Z,51.22
2016-09-08T11:39:21.740Z,50.09
2016-09-08T11:40:21.739Z,50.71
2016-09-08T11:41:21.738Z,51.25
2016-09-08T11:42:21.739Z,51.05
2016-09-08T11:43:21.741Z,52.25
2016-09-08T11:44:21.743Z,52.38
2016-09-08T11:45:21.410Z,52.38
2016-09-08T11:46:21.728Z,52.48
2016-09-08T11:47:21.731Z,50.85
2016-09-08T11:48:21.408Z,51.28
2016-09-08T11:49:21.729Z,51.15
2016-09-08T11:50:21.740Z,50.68
2016-09-08T11:51:21.713Z,49.35
2016-09-08T11:52:21.716Z,48.49
2016-09-08T11:53:21.706Z,48.22
2016-09-08T11:54:21.709Z,48.41
2016-09-08T11:55:21.377Z,48.12
2016-09-08T11:56:21.710Z,47.53
2016-09-08T11:57:21.709Z,47.45
2016-09-08T11:58:21.702Z,48
2016-09-08T11:59:21.710Z,47.92
2016-09-08T12:00:21.379Z,48.49
2016-09-08T12:01:21.377Z,49.13
2016-09-08T12:02:21.679Z,49.13
2016-09-08T12:03:21.685Z,50.46
2016-09-08T12:04:21.705Z,50.78
2016-09-08T12:05:21.689Z,50.19
2016-09-08T12:06:21.676Z,49.99
2016-09-08T12:07:21.676Z,50.68
2016-09-08T12:08:21.349Z,50.44
2016-09-08T12:09:21.667Z,50.24
2016-09-08T12:10:21.669Z,50.49
2016-09-08T12:11:21.680Z,50.16
2016-09-08T12:12:21.665Z,49.77
2016-09-08T12:13:21.661Z,49.48
2016-09-08T12:14:21.651Z,49.43
2016-09-08T12:15:21.672Z,49.04
2016-09-08T12:16:21.646Z,48.96
2016-09-08T12:17:21.318Z,48.29
2016-09-08T12:18:21.328Z,48.79
2016-09-08T12:19:21.645Z,49.11
2016-09-08T12:20:21.639Z,50.39
2016-09-08T12:21:21.326Z,50.93
2016-09-08T12:22:21.639Z,50.63
2016-09-08T12:23:21.628Z,50.34
2016-09-08T12:24:21.299Z,50.16
2016-09-08T12:25:21.307Z,49.4
2016-09-08T12:26:21.303Z,50.19
2016-09-08T12:27:21.619Z,50.04
2016-09-08T12:28:21.608Z,50.04
2016-09-08T12:29:21.614Z,51.22
2016-09-08T12:30:21.286Z,51.37
2016-09-08T12:31:21.601Z,51.17
2016-09-08T12:32:21.617Z,50.42
2016-09-08T12:33:21.599Z,50.07
2016-09-08T12:34:21.589Z,50.32
2016-09-08T12:35:21.590Z,50.07
2016-09-08T12:36:21.589Z,50.07
2016-09-08T12:37:21.588Z,50.16
2016-09-08T12:38:21.589Z,49.46
2016-09-08T12:39:21.586Z,50.9
2016-09-08T12:40:21.259Z,50.73
2016-09-08T12:41:21.576Z,50.9
2016-09-08T12:42:21.570Z,51.42
2016-09-08T12:43:21.254Z,50.93
2016-09-08T12:44:21.556Z,49.77
2016-09-08T12:45:21.242Z,49.04
2016-09-08T12:46:21.560Z,48.57
2016-09-08T12:47:21.237Z,48.02
2016-09-08T12:48:21.558Z,47.63
2016-09-08T12:49:21.549Z,48.59
2016-09-08T12:50:21.559Z,48.64
2016-09-08T12:51:21.539Z,49.16
2016-09-08T12:52:21.229Z,50.07
2016-09-08T12:53:21.548Z,50.44
2016-09-08T12:54:21.547Z,50.26